Time;durP1;ratioP1;P1;durP2;ratioP2;P2;SDS_P1;SDS_P2;PMS_P1;PMS_P2;Temp;Humidity;BMP_temperature;BMP_pressure;BME280_temperature;BME280_humidity;BME280_pressure;Samples;Min_cycle;Max_cycle;Signal;HPM_P1;HPM_P2
2021/08/27 00:01:00;;;;;;;14.47;6.17;;;;;;;16.14;100.00;100438.51;1782416;80;21091;-59
2021/08/27 00:03:27;;;;;;;9.73;6.05;;;;;;;16.12;100.00;100439.06;1782389;80;21041;-61
2021/08/27 00:05:54;;;;;;;9.08;6.08;;;;;;;16.09;100.00;100434.35;1781300;79;21028;-60
2021/08/27 00:08:21;;;;;;;8.85;5.67;;;;;;;16.05;100.00;100437.72;1784809;80;21045;-62
2021/08/27 00:10:50;;;;;;;10.60;6.35;;;;;;;16.01;100.00;100442.45;1782468;80;21072;-62
2021/08/27 00:13:17;;;;;;;17.23;7.03;;;;;;;15.99;100.00;100447.08;1780732;80;21066;-61
2021/08/27 00:15:44;;;;;;;10.20;6.67;;;;;;;15.98;100.00;100448.05;1784303;80;21520;-60
2021/08/27 00:18:12;;;;;;;12.25;6.25;;;;;;;15.99;100.00;100456.55;1781797;80;20980;-58
2021/08/27 00:20:39;;;;;;;12.65;5.85;;;;;;;15.99;100.00;100459.25;1779867;80;21036;-61
2021/08/27 00:23:06;;;;;;;15.93;6.67;;;;;;;15.99;100.00;100459.25;1781773;80;21044;-61
2021/08/27 00:25:33;;;;;;;14.20;7.05;;;;;;;15.99;100.00;100461.95;1773972;79;21854;-61
2021/08/27 00:28:02;;;;;;;29.37;6.80;;;;;;;15.99;100.00;100457.90;1781070;80;21016;-59
2021/08/27 00:30:30;;;;;;;19.35;6.70;;;;;;;15.98;100.00;100450.75;1770383;80;21059;-61
2021/08/27 00:32:57;;;;;;;14.28;6.92;;;;;;;15.95;100.00;100452.30;1770869;79;21013;-60
2021/08/27 00:35:24;;;;;;;17.57;6.70;;;;;;;15.94;100.00;100456.47;1771055;81;21108;-58
2021/08/27 00:37:51;;;;;;;12.82;6.78;;;;;;;15.92;100.00;100453.84;1764888;81;21965;-58
2021/08/27 00:40:19;;;;;;;14.38;6.70;;;;;;;15.91;100.00;100454.81;1767884;81;21056;-58
2021/08/27 00:42:47;;;;;;;9.05;6.78;;;;;;;15.88;100.00;100461.73;1769356;81;21088;-60
2021/08/27 00:45:15;;;;;;;10.30;6.53;;;;;;;15.86;100.00;100462.31;1769996;81;21021;-60
2021/08/27 00:47:42;;;;;;;12.82;6.40;;;;;;;15.84;100.00;100471.00;1769338;81;21422;-60
2021/08/27 00:50:10;;;;;;;9.63;6.65;;;;;;;15.81;100.00;100475.25;1769330;79;21290;-60
2021/08/27 00:52:41;;;;;;;10.60;6.33;;;;;;;15.75;100.00;100471.94;1770476;81;21065;-60
2021/08/27 00:55:09;;;;;;;10.98;6.60;;;;;;;15.71;100.00;100466.34;1764309;81;21036;-58
2021/08/27 00:57:37;;;;;;;12.25;6.45;;;;;;;15.68;100.00;100463.83;1769041;81;21069;-58
2021/08/27 01:00:06;;;;;;;9.85;6.70;;;;;;;15.68;100.00;100461.13;1758790;79;21071;-60
2021/08/27 01:02:35;;;;;;;11.00;6.12;;;;;;;15.66;100.00;100465.76;1770458;80;21797;-60
2021/08/27 01:05:03;;;;;;;17.32;7.03;;;;;;;15.64;100.00;100467.69;1757565;81;21033;-59
2021/08/27 01:07:31;;;;;;;13.15;7.75;;;;;;;15.63;100.00;100468.66;1770229;81;20993;-59
2021/08/27 01:10:18;;;;;;;10.53;6.78;;;;;;;15.62;100.00;100469.62;1769799;79;21502;-59
2021/08/27 01:13:26;;;;;;;12.80;6.90;;;;;;;15.59;100.00;100466.61;1764532;79;21092;-60
2021/08/27 01:16:12;;;;;;;14.20;7.58;;;;;;;15.57;100.00;100468.53;1768206;81;22096;-60
2021/08/27 01:18:57;;;;;;;17.00;6.78;;;;;;;15.55;100.00;100469.58;1770022;81;21468;-59
2021/08/27 01:22:04;;;;;;;17.48;7.60;;;;;;;15.51;100.00;100478.84;1742231;79;21004;-58
2021/08/27 01:24:33;;;;;;;13.55;7.62;;;;;;;15.48;100.00;100474.51;1770703;81;20941;-60
2021/08/27 01:27:04;;;;;;;24.07;7.97;;;;;;;15.46;100.00;100462.43;1769538;81;21041;-60
2021/08/27 01:29:52;;;;;;;20.12;8.70;;;;;;;15.47;100.00;100461.47;1761778;81;21126;-57
2021/08/27 01:32:29;;;;;;;16.48;7.90;;;;;;;15.50;100.00;100464.94;1768195;81;21024;-59
2021/08/27 01:34:57;;;;;;;13.28;8.10;;;;;;;15.54;100.00;100474.59;1757847;81;21021;-60
2021/08/27 01:37:24;;;;;;;11.75;7.22;;;;;;;15.56;100.00;100472.20;1768427;79;21025;-58
2021/08/27 01:39:54;;;;;;;18.17;7.83;;;;;;;15.58;100.00;100466.69;1754114;79;21506;-60
2021/08/27 01:42:24;;;;;;;16.82;8.35;;;;;;;15.60;100.00;100460.73;1768732;81;21096;-59
2021/08/27 01:44:53;;;;;;;18.20;8.53;;;;;;;15.58;100.00;100455.88;1770683;81;21033;-59
2021/08/27 01:47:26;;;;;;;18.45;8.00;;;;;;;15.55;100.00;100459.66;1765849;81;21033;-59
2021/08/27 01:49:53;;;;;;;14.93;7.30;;;;;;;15.54;100.00;100459.27;1769764;81;21012;-61
2021/08/27 01:52:21;;;;;;;15.93;7.65;;;;;;;15.54;100.00;100458.38;1759375;81;21068;-61
2021/08/27 01:54:48;;;;;;;12.47;7.42;;;;;;;15.55;100.00;100458.77;1769311;81;21721;-60
2021/08/27 01:57:15;;;;;;;16.23;7.60;;;;;;;15.55;100.00;100462.83;1769186;81;21012;-59
2021/08/27 01:59:43;;;;;;;14.68;7.67;;;;;;;15.56;100.00;100463.21;1768395;81;21092;-59
2021/08/27 02:02:12;;;;;;;15.13;8.15;;;;;;;15.57;100.00;100459.08;1724557;81;21403;-60
2021/08/27 02:04:43;;;;;;;15.75;8.73;;;;;;;15.57;100.00;100463.59;1760982;81;21016;-61
2021/08/27 02:07:11;;;;;;;15.58;7.70;;;;;;;15.61;100.00;100465.17;1768676;81;20958;-60
2021/08/27 02:09:39;;;;;;;14.87;8.53;;;;;;;15.60;100.00;100458.03;1767755;79;21035;-61
2021/08/27 02:12:07;;;;;;;15.35;7.67;;;;;;;15.61;100.00;100463.83;1768897;81;20997;-60
2021/08/27 02:14:36;;;;;;;15.80;9.18;;;;;;;15.61;100.00;100465.17;1768763;81;20989;-61
2021/08/27 02:17:06;;;;;;;15.68;7.85;;;;;;;15.60;100.00;100468.84;1768945;81;20994;-60
2021/08/27 02:19:34;;;;;;;18.23;8.78;;;;;;;15.63;100.00;100476.77;1765333;81;21651;-59
2021/08/27 02:22:02;;;;;;;13.28;8.20;;;;;;;15.65;100.00;100473.48;1765274;81;21103;-59
2021/08/27 02:24:34;;;;;;;13.05;8.73;;;;;;;15.64;100.00;100469.04;1759299;81;21032;-59
2021/08/27 02:27:02;;;;;;;13.05;7.97;;;;;;;15.65;100.00;100468.54;1767310;80;20929;-59
2021/08/27 02:29:29;;;;;;;14.95;7.97;;;;;;;15.65;100.00;100473.48;1761344;79;21015;-59
2021/08/27 02:32:01;;;;;;;16.73;8.48;;;;;;;15.65;100.00;100473.48;1781565;80;21505;-59
2021/08/27 02:34:29;;;;;;;14.63;7.78;;;;;;;15.66;100.00;100471.63;1784448;79;21070;-59
2021/08/27 02:36:57;;;;;;;16.15;8.93;;;;;;;15.66;100.00;100473.87;1775802;80;21572;-58
2021/08/27 02:39:25;;;;;;;14.20;9.25;;;;;;;15.65;100.00;100478.88;1785666;80;20992;-60
2021/08/27 02:41:52;;;;;;;14.83;9.23;;;;;;;15.65;100.00;100481.59;1785079;79;21008;-60
2021/08/27 02:44:20;;;;;;;14.28;8.43;;;;;;;15.63;100.00;100480.81;1787675;80;21440;-58
2021/08/27 02:46:49;;;;;;;19.07;9.88;;;;;;;15.64;100.00;100482.55;1786065;80;21012;-57
2021/08/27 02:49:16;;;;;;;16.73;8.88;;;;;;;15.66;100.00;100479.27;1786159;80;21416;-60
2021/08/27 02:51:51;;;;;;;15.53;9.45;;;;;;;15.67;100.00;100482.36;1787244;80;21016;-60
2021/08/27 02:54:19;;;;;;;14.03;9.43;;;;;;;15.70;100.00;100482.17;1785391;80;21470;-58
2021/08/27 02:56:46;;;;;;;16.07;9.45;;;;;;;15.68;100.00;100480.51;1786197;80;21524;-58
2021/08/27 02:59:13;;;;;;;14.90;9.75;;;;;;;15.70;100.00;100483.52;1784664;79;20997;-61
2021/08/27 03:01:50;;;;;;;17.90;9.40;;;;;;;15.73;100.00;100487.38;1760892;80;21078;-58
2021/08/27 03:04:46;;;;;;;17.77;9.08;;;;;;;15.76;100.00;100483.13;1780881;80;20997;-58
2021/08/27 03:07:15;;;;;;;13.93;9.93;;;;;;;15.78;100.00;100490.28;1784575;80;21024;-59
2021/08/27 03:09:57;;;;;;;14.75;8.88;;;;;;;15.80;100.00;100483.83;1775789;80;21036;-58
2021/08/27 03:12:33;;;;;;;17.42;9.98;;;;;;;15.81;100.00;100477.95;1785079;80;21003;-59
2021/08/27 03:15:03;;;;;;;15.65;9.95;;;;;;;15.82;100.00;100481.05;1787430;80;21036;-60
2021/08/27 03:17:34;;;;;;;17.15;9.13;;;;;;;15.81;100.00;100482.01;1787973;79;21469;-60
2021/08/27 03:20:18;;;;;;;17.02;9.90;;;;;;;15.80;100.00;100485.17;1785399;80;21067;-60
2021/08/27 03:22:58;;;;;;;18.63;9.83;;;;;;;15.76;100.00;100483.13;1780900;79;21019;-59
2021/08/27 03:25:25;;;;;;;19.90;9.90;;;;;;;15.74;100.00;100476.95;1768736;80;21143;-58
2021/08/27 03:27:57;;;;;;;15.98;10.43;;;;;;;15.75;100.00;100481.89;1777273;80;21071;-58
2021/08/27 03:30:26;;;;;;;18.35;10.43;;;;;;;15.76;100.00;100488.54;1737417;80;21058;-59
2021/08/27 03:32:59;;;;;;;21.87;10.48;;;;;;;15.76;100.00;100483.13;1758092;81;21490;-58
2021/08/27 03:35:26;;;;;;;16.20;10.38;;;;;;;15.80;100.00;100489.70;1757670;80;21633;-60
2021/08/27 03:37:54;;;;;;;15.60;9.85;;;;;;;15.82;100.00;100483.25;1745118;81;21028;-58
2021/08/27 03:40:21;;;;;;;22.90;9.88;;;;;;;15.84;100.00;100483.17;1757418;80;21126;-61
2021/08/27 03:42:48;;;;;;;17.62;10.45;;;;;;;15.88;100.00;100487.41;1728528;80;21947;-59
2021/08/27 03:45:18;;;;;;;22.00;10.28;;;;;;;15.90;100.00;100483.66;1750749;80;20989;-61
2021/08/27 03:47:45;;;;;;;26.70;10.90;;;;;;;15.95;100.00;100479.34;1758609;80;21695;-61
2021/08/27 03:50:13;;;;;;;20.43;11.12;;;;;;;15.98;100.00;100485.05;1759505;81;20990;-59
2021/08/27 03:52:42;;;;;;;21.80;10.98;;;;;;;15.99;100.00;100480.87;1755636;80;21094;-58
2021/08/27 03:55:11;;;;;;;24.47;11.30;;;;;;;16.04;100.00;100486.01;1752019;80;21064;-60
2021/08/27 03:57:38;;;;;;;18.12;10.70;;;;;;;16.10;100.00;100488.32;1747986;81;20975;-59
2021/08/27 04:00:08;;;;;;;20.82;10.63;;;;;;;16.15;100.00;100485.34;1750692;80;21617;-59
2021/08/27 04:02:39;;;;;;;27.45;11.33;;;;;;;16.20;100.00;100494.02;1750524;81;21020;-60
2021/08/27 04:05:11;;;;;;;30.88;12.37;;;;;;;16.24;100.00;100502.33;1761636;81;20973;-59
2021/08/27 04:07:38;;;;;;;26.20;11.70;;;;;;;16.28;100.00;100506.60;1753788;80;21041;-58
2021/08/27 04:10:09;;;;;;;27.73;12.13;;;;;;;16.31;100.00;100507.76;1750078;80;21026;-58
2021/08/27 04:12:38;;;;;;;24.77;11.38;;;;;;;16.36;100.00;100512.00;1749590;81;21109;-58
2021/08/27 04:15:08;;;;;;;21.57;12.10;;;;;;;16.45;100.00;100521.76;1749827;80;21030;-59
2021/08/27 04:17:35;;;;;;;24.80;11.75;;;;;;;16.56;100.00;100522.89;1747101;81;21084;-59
2021/08/27 04:20:05;;;;;;;24.23;13.05;;;;;;;16.68;100.00;100518.53;1744424;81;21589;-59
2021/08/27 04:22:32;;;;;;;25.23;12.47;;;;;;;16.79;100.00;100528.66;1746284;82;21172;-59
2021/08/27 04:25:01;;;;;;;27.60;13.68;;;;;;;16.88;100.00;100534.35;1755470;80;20998;-59
2021/08/27 04:27:28;;;;;;;23.62;14.65;;;;;;;17.02;100.00;100529.91;1745574;80;21044;-59
2021/08/27 04:29:55;;;;;;;30.57;15.13;;;;;;;17.18;100.00;100541.48;1760051;79;21125;-61
2021/08/27 04:32:22;;;;;;;26.93;15.78;;;;;;;17.34;100.00;100547.22;1779891;80;21059;-61
2021/08/27 04:34:49;;;;;;;27.80;16.00;;;;;;;17.49;100.00;100552.58;1782654;79;21036;-60
2021/08/27 04:37:16;;;;;;;33.45;17.30;;;;;;;17.61;100.00;100553.97;1772235;80;21065;-58
2021/08/27 04:39:43;;;;;;;31.23;17.92;;;;;;;17.68;100.00;100546.77;1782287;80;20921;-58
2021/08/27 04:42:10;;;;;;;35.90;19.00;;;;;;;17.72;100.00;100541.05;1784879;79;20973;-59
2021/08/27 04:44:38;;;;;;;32.03;19.00;;;;;;;17.78;100.00;100540.23;1782801;79;21111;-58
2021/08/27 04:47:05;;;;;;;37.60;16.95;;;;;;;17.80;100.00;100547.30;1782793;80;21052;-59
2021/08/27 04:49:33;;;;;;;31.70;15.05;;;;;;;17.87;100.00;100551.81;1782559;80;21793;-59
2021/08/27 04:52:00;;;;;;;26.12;14.30;;;;;;;17.96;100.00;100563.88;1781811;80;21410;-59
2021/08/27 04:54:27;;;;;;;24.18;14.28;;;;;;;17.97;100.00;100561.04;1776636;80;21472;-59
2021/08/27 04:56:54;;;;;;;36.40;15.35;;;;;;;18.00;100.00;100555.40;1781857;80;21466;-59
2021/08/27 04:59:21;;;;;;;32.67;14.40;;;;;;;18.06;100.00;100554.65;1782461;80;21488;-59
2021/08/27 05:01:49;;;;;;;26.55;14.45;;;;;;;18.15;100.00;100551.28;1781918;78;21045;-59
2021/08/27 05:07:10;;;;;;;32.03;15.48;;;;;;;18.33;100.00;100551.81;1782682;80;21056;-59
2021/08/27 05:09:38;;;;;;;40.83;15.65;;;;;;;18.36;100.00;100556.16;1775948;79;21561;-60
2021/08/27 05:12:07;;;;;;;38.45;15.00;;;;;;;18.44;100.00;100560.55;1781758;79;21032;-58
2021/08/27 05:14:40;;;;;;;44.05;17.20;;;;;;;18.59;100.00;100550.45;1785799;79;21221;-59
2021/08/27 05:17:08;;;;;;;49.85;18.55;;;;;;;18.73;100.00;100547.59;1781850;79;21001;-59
2021/08/27 05:19:35;;;;;;;43.13;16.77;;;;;;;18.92;100.00;100552.19;1784151;80;21441;-59
2021/08/27 05:22:03;;;;;;;44.90;18.42;;;;;;;19.08;100.00;100554.16;1782352;79;21080;-59
2021/08/27 05:24:30;;;;;;;54.65;18.87;;;;;;;19.21;100.00;100551.39;1784536;80;21454;-59
2021/08/27 05:26:58;;;;;;;45.15;19.27;;;;;;;19.36;100.00;100561.63;1776065;80;21220;-59
2021/08/27 05:29:25;;;;;;;31.85;16.20;;;;;;;19.56;100.00;100564.17;1766226;80;21477;-60
2021/08/27 05:31:52;;;;;;;33.45;17.25;;;;;;;19.67;100.00;100574.23;1751759;80;21064;-60
2021/08/27 05:34:20;;;;;;;37.80;17.23;;;;;;;19.80;100.00;100573.31;1721734;83;21120;-58
2021/08/27 05:36:47;;;;;;;38.73;16.62;;;;;;;20.07;100.00;100572.18;1772761;80;21029;-60
2021/08/27 05:39:16;;;;;;;52.45;16.48;;;;;;;20.53;100.00;100569.89;1770952;79;21194;-60
2021/08/27 05:41:44;;;;;;;24.82;14.23;;;;;;;21.12;100.00;100582.90;1769529;81;21052;-60
2021/08/27 05:44:12;;;;;;;43.90;15.35;;;;;;;21.77;98.79;100578.48;1769489;79;21162;-60
2021/08/27 05:46:40;;;;;;;23.57;13.03;;;;;;;22.45;95.04;100589.03;1762140;80;20984;-59
2021/08/27 05:49:07;;;;;;;18.35;12.33;;;;;;;23.09;90.11;100592.47;1768583;79;21044;-60
2021/08/27 05:51:34;;;;;;;25.55;12.93;;;;;;;23.42;86.61;100593.16;1769962;79;21627;-59
2021/08/27 05:54:01;;;;;;;28.17;14.78;;;;;;;23.49;85.89;100592.09;1769842;79;21088;-59
2021/08/27 05:56:29;;;;;;;36.75;14.60;;;;;;;23.50;84.52;100591.58;1772119;79;21064;-60
2021/08/27 05:58:56;;;;;;;31.80;13.08;;;;;;;23.39;83.53;100603.52;1733999;81;21510;-59
2021/08/27 06:01:23;;;;;;;39.95;13.93;;;;;;;23.18;83.12;100590.77;1776357;79;21060;-61
2021/08/27 06:03:52;;;;;;;32.00;12.88;;;;;;;22.99;82.47;100587.48;1771980;78;21077;-61
2021/08/27 06:06:20;;;;;;;20.77;13.00;;;;;;;22.86;81.49;100591.83;1768444;78;20959;-61
2021/08/27 06:08:48;;;;;;;22.95;12.23;;;;;;;22.73;82.16;100592.92;1775928;78;20934;-59
2021/08/27 06:11:15;;;;;;;25.32;12.75;;;;;;;22.70;82.33;100589.62;1780754;79;20899;-59
2021/08/27 06:13:42;;;;;;;21.00;12.40;;;;;;;22.70;81.18;100593.72;1780719;79;21588;-59
2021/08/27 06:16:10;;;;;;;22.55;11.88;;;;;;;22.64;81.20;100592.39;1765495;79;21936;-60
2021/08/27 06:18:38;;;;;;;21.05;11.43;;;;;;;22.64;80.67;100590.14;1778199;79;21115;-59
2021/08/27 06:21:06;;;;;;;18.25;10.68;;;;;;;22.68;80.09;100591.62;1718304;82;21035;-59
2021/08/27 06:23:33;;;;;;;21.65;11.00;;;;;;;22.68;78.95;100594.36;1728309;81;21098;-60
2021/08/27 06:26:00;;;;;;;27.45;10.88;;;;;;;22.68;79.02;100591.11;1731028;81;21061;-59
2021/08/27 06:28:27;;;;;;;21.50;10.53;;;;;;;22.72;76.96;100597.17;1722335;81;21636;-61
2021/08/27 06:30:55;;;;;;;17.62;10.25;;;;;;;22.68;77.50;100590.26;1727095;81;21180;-59
2021/08/27 06:33:23;;;;;;;13.38;8.20;;;;;;;22.71;77.71;100594.08;1753486;80;20858;-59
2021/08/27 06:35:51;;;;;;;15.28;8.70;;;;;;;22.75;75.99;100590.06;1755047;80;21110;-59
2021/08/27 06:38:25;;;;;;;13.93;8.40;;;;;;;22.79;75.86;100579.73;1754876;80;21117;-60
2021/08/27 06:40:58;;;;;;;19.82;8.40;;;;;;;22.87;76.59;100585.36;1753250;80;21112;-59
2021/08/27 06:43:27;;;;;;;8.33;6.53;;;;;;;22.82;73.00;100580.30;1737160;81;21141;-60
2021/08/27 06:45:55;;;;;;;10.98;7.50;;;;;;;22.73;73.51;100586.61;1757216;80;21051;-60
2021/08/27 06:48:22;;;;;;;12.82;7.35;;;;;;;22.73;73.89;100586.61;1763706;80;20989;-60
2021/08/27 06:50:50;;;;;;;10.72;7.03;;;;;;;22.73;73.81;100592.07;1763805;80;21571;-60
2021/08/27 06:53:17;;;;;;;11.20;6.97;;;;;;;22.73;73.82;100592.92;1755178;79;21106;-60
2021/08/27 06:55:46;;;;;;;11.70;7.33;;;;;;;22.76;73.98;100587.69;1757372;80;21007;-61
2021/08/27 06:58:13;;;;;;;12.03;6.35;;;;;;;22.87;73.46;100598.51;1761672;80;21146;-59
2021/08/27 07:00:40;;;;;;;9.43;6.50;;;;;;;23.03;73.55;100594.41;1749809;81;21027;-59
2021/08/27 07:03:09;;;;;;;9.03;6.65;;;;;;;23.12;72.74;100601.78;1748397;81;21497;-60
2021/08/27 07:05:36;;;;;;;7.78;5.60;;;;;;;23.17;72.78;100603.59;1744359;81;21522;-61
2021/08/27 07:08:04;;;;;;;10.68;6.25;;;;;;;23.23;72.66;100604.91;1764034;80;21020;-60
2021/08/27 07:10:31;;;;;;;8.33;5.97;;;;;;;23.31;72.35;100611.05;1761101;80;21047;-59
2021/08/27 07:12:59;;;;;;;11.53;7.05;;;;;;;23.36;70.77;100621.09;1758907;80;22481;-60
2021/08/27 07:15:26;;;;;;;14.25;7.53;;;;;;;23.38;69.95;100618.20;1761709;80;21619;-60
2021/08/27 07:17:53;;;;;;;20.02;7.90;;;;;;;23.39;69.37;100618.07;1765079;80;21779;-60
2021/08/27 07:20:20;;;;;;;13.18;7.97;;;;;;;23.41;68.17;100635.69;1759245;80;21048;-62
2021/08/27 07:22:49;;;;;;;15.18;8.05;;;;;;;23.37;67.14;100636.98;1761792;80;21111;-61
2021/08/27 07:25:16;;;;;;;12.50;8.03;;;;;;;23.35;68.02;100637.63;1754042;81;21644;-59
2021/08/27 07:27:43;;;;;;;14.05;8.30;;;;;;;23.41;66.45;100639.31;1755713;80;21106;-60
2021/08/27 07:30:12;;;;;;;12.13;8.73;;;;;;;23.42;66.73;100645.14;1753096;80;21808;-60
2021/08/27 07:32:39;;;;;;;12.33;8.23;;;;;;;23.44;66.33;100640.39;1731876;80;21198;-61
2021/08/27 07:35:08;;;;;;;10.85;7.72;;;;;;;23.49;64.11;100644.56;1722237;83;21051;-60
2021/08/27 07:37:38;;;;;;;14.35;8.95;;;;;;;23.34;66.00;100635.91;1736232;81;21136;-60
2021/08/27 07:40:11;;;;;;;16.62;9.20;;;;;;;23.29;65.74;100634.45;1720346;81;21509;-62
2021/08/27 07:42:39;;;;;;;15.98;10.03;;;;;;;23.27;66.27;100631.48;1719709;81;21085;-61
2021/08/27 07:45:07;;;;;;;13.93;9.35;;;;;;;23.19;66.67;100633.52;1725106;81;21529;-61
2021/08/27 07:47:35;;;;;;;17.17;9.83;;;;;;;23.09;67.31;100630.75;1721420;81;21040;-61
2021/08/27 07:50:03;;;;;;;14.40;9.10;;;;;;;23.06;68.45;100631.55;1729605;81;21099;-61
2021/08/27 07:52:31;;;;;;;14.50;9.20;;;;;;;22.97;66.69;100637.34;1725046;81;21072;-62
2021/08/27 07:54:58;;;;;;;16.52;10.48;;;;;;;22.83;67.24;100640.79;1718966;81;21136;-63
2021/08/27 07:57:25;;;;;;;15.58;10.15;;;;;;;22.73;69.38;100639.38;1722917;81;21045;-61
2021/08/27 07:59:52;;;;;;;15.13;10.70;;;;;;;22.72;70.06;100649.09;1725254;81;21073;-61
2021/08/27 08:02:19;;;;;;;19.40;10.25;;;;;;;22.64;70.87;100654.34;1733423;81;20950;-61
2021/08/27 08:04:48;;;;;;;13.83;10.28;;;;;;;22.58;71.28;100659.36;1728039;81;21564;-60
2021/08/27 08:07:15;;;;;;;13.55;10.20;;;;;;;22.57;71.84;100648.06;1718114;81;21240;-59
2021/08/27 08:09:42;;;;;;;16.85;10.28;;;;;;;22.57;72.57;100638.50;1733605;80;21134;-61
2021/08/27 08:12:10;;;;;;;15.32;11.38;;;;;;;22.62;73.36;100642.20;1722847;81;21150;-61
2021/08/27 08:14:38;;;;;;;17.37;11.75;;;;;;;22.61;73.27;100638.59;1723596;83;21543;-62
2021/08/27 08:17:05;;;;;;;17.98;11.70;;;;;;;22.57;73.35;100650.80;1728126;81;21057;-61
2021/08/27 08:19:32;;;;;;;19.12;11.50;;;;;;;22.56;74.14;100643.61;1728649;81;21134;-63
2021/08/27 08:21:59;;;;;;;19.73;12.55;;;;;;;22.66;74.57;100633.22;1730727;81;21120;-60
2021/08/27 08:24:26;;;;;;;18.67;13.50;;;;;;;22.80;74.50;100634.23;1729132;81;21116;-61
2021/08/27 08:26:53;;;;;;;20.02;13.78;;;;;;;22.89;74.05;100631.19;1727558;81;21542;-60
2021/08/27 08:29:20;;;;;;;20.77;13.35;;;;;;;22.93;73.83;100624.95;1732622;81;21261;-60
2021/08/27 08:31:47;;;;;;;17.50;12.73;;;;;;;22.94;72.98;100629.41;1725572;80;21783;-61
2021/08/27 08:34:14;;;;;;;21.35;13.15;;;;;;;22.87;72.61;100634.56;1727614;81;21115;-61
2021/08/27 08:36:41;;;;;;;22.07;14.10;;;;;;;22.80;72.54;100631.50;1726963;81;21137;-60
2021/08/27 08:39:08;;;;;;;17.85;13.32;;;;;;;22.87;73.46;100629.94;1724844;81;21065;-60
2021/08/27 08:41:36;;;;;;;19.02;12.95;;;;;;;22.96;73.12;100626.04;1735610;81;21036;-61
2021/08/27 08:44:04;;;;;;;19.12;14.10;;;;;;;23.00;72.80;100627.00;1725213;81;21890;-60
2021/08/27 08:46:31;;;;;;;21.80;14.03;;;;;;;23.06;72.50;100627.45;1734653;80;21077;-60
2021/08/27 08:48:59;;;;;;;18.87;13.95;;;;;;;23.12;72.31;100631.86;1732466;81;21045;-61
2021/08/27 08:51:26;;;;;;;24.12;14.65;;;;;;;23.23;71.50;100632.74;1729505;81;21097;-60
2021/08/27 08:53:54;;;;;;;23.07;14.78;;;;;;;23.37;71.18;100636.50;1734455;81;21513;-60
2021/08/27 08:56:21;;;;;;;22.93;13.80;;;;;;;23.49;70.52;100650.04;1730322;81;21179;-61
2021/08/27 08:58:49;;;;;;;20.82;14.55;;;;;;;23.55;69.96;100639.92;1722645;81;21140;-61
2021/08/27 09:01:19;;;;;;;26.10;15.13;;;;;;;23.57;69.71;100652.95;1724571;81;21083;-61
2021/08/27 09:03:46;;;;;;;21.68;15.10;;;;;;;23.62;69.82;100635.60;1718149;81;21207;-62
2021/08/27 09:06:13;;;;;;;26.73;17.07;;;;;;;23.66;70.31;100641.14;1728926;81;21041;-63
2021/08/27 09:08:46;;;;;;;24.77;16.73;;;;;;;23.65;69.80;100633.95;1730902;81;21606;-61
2021/08/27 09:11:23;;;;;;;32.15;18.15;;;;;;;23.64;69.72;100631.34;1728269;81;21044;-61
2021/08/27 09:13:54;;;;;;;23.83;16.35;;;;;;;23.64;70.04;100639.06;1725990;81;21400;-61
2021/08/27 09:16:27;;;;;;;25.97;17.62;;;;;;;23.60;70.20;100637.09;1734418;81;21101;-60
2021/08/27 09:18:54;;;;;;;24.60;17.27;;;;;;;23.56;70.30;100630.70;1724006;81;21515;-62
2021/08/27 09:21:50;;;;;;;21.33;13.30;;;;;;;23.51;70.14;100629.75;1741603;80;21036;-61
2021/08/27 09:24:28;;;;;;;22.30;16.00;;;;;;;23.42;68.77;100623.25;1737989;81;21427;-60
2021/08/27 09:26:58;;;;;;;26.00;17.50;;;;;;;23.35;69.97;100616.63;1722587;81;21402;-60
2021/08/27 09:29:34;;;;;;;28.15;17.25;;;;;;;23.42;70.49;100621.00;1720505;82;20986;-60
2021/08/27 09:37:53;;;;;;;24.25;16.50;;;;;;;23.41;70.50;100621.52;1752995;81;21616;-61
2021/08/27 09:40:27;;;;;;;25.10;15.28;;;;;;;23.40;69.53;100619.80;1733865;81;21468;-61
2021/08/27 09:42:56;;;;;;;21.37;15.60;;;;;;;23.40;69.20;100622.53;1739046;81;21400;-61
2021/08/27 09:45:40;;;;;;;27.55;17.42;;;;;;;23.44;68.91;100617.66;1744756;80;20975;-61
2021/08/27 09:48:14;;;;;;;32.73;19.02;;;;;;;23.48;69.26;100620.95;1740357;80;21102;-62
2021/08/27 09:50:43;;;;;;;25.97;17.60;;;;;;;23.49;69.23;100614.47;1743921;80;21418;-61
2021/08/27 09:53:11;;;;;;;30.30;17.35;;;;;;;23.57;68.81;100617.38;1742350;81;20892;-60
2021/08/27 09:55:41;;;;;;;25.90;17.52;;;;;;;23.61;67.22;100612.83;1743807;81;21481;-63
2021/08/27 09:58:11;;;;;;;24.30;16.55;;;;;;;23.56;67.56;100623.87;1749164;80;21056;-61
2021/08/27 10:00:43;;;;;;;26.68;16.32;;;;;;;23.53;67.73;100618.65;1785340;79;21492;-61
2021/08/27 10:03:25;;;;;;;25.45;15.63;;;;;;;23.53;67.70;100620.02;1783652;79;20906;-62
2021/08/27 10:05:56;;;;;;;23.02;16.05;;;;;;;23.51;67.10;100620.18;1779534;79;20993;-61
2021/08/27 10:08:28;;;;;;;25.17;16.85;;;;;;;23.45;66.70;100606.55;1785289;79;21521;-61
2021/08/27 10:11:16;;;;;;;28.98;18.95;;;;;;;23.38;66.36;100604.03;1777321;79;21093;-60
2021/08/27 10:13:43;;;;;;;26.25;17.32;;;;;;;23.34;66.93;100597.13;1754681;79;21060;-61
2021/08/27 10:16:12;;;;;;;25.80;16.30;;;;;;;23.32;67.10;100598.61;1770855;79;21500;-61
2021/08/27 10:18:40;;;;;;;23.85;15.20;;;;;;;23.31;65.64;100605.58;1777256;79;21175;-61
2021/08/27 10:21:07;;;;;;;22.65;12.45;;;;;;;23.31;65.67;100604.22;1755550;79;21276;-61
2021/08/27 10:23:34;;;;;;;24.32;14.47;;;;;;;23.32;65.38;100601.84;1768447;78;21521;-61
2021/08/27 10:26:19;;;;;;;21.25;13.55;;;;;;;23.34;64.29;100609.43;1738282;80;20974;-62
2021/08/27 10:28:48;;;;;;;17.40;11.22;;;;;;;23.34;64.10;100603.96;1720348;81;21051;-61
2021/08/27 10:31:15;;;;;;;19.23;12.68;;;;;;;23.27;60.45;100602.77;1713197;82;21163;-61
2021/08/27 10:33:47;;;;;;;22.70;13.83;;;;;;;23.20;61.68;100600.21;1703606;82;21068;-61
2021/08/27 10:36:27;;;;;;;26.45;15.83;;;;;;;23.21;64.44;100609.66;1739853;81;21114;-61
2021/08/27 10:38:57;;;;;;;24.95;15.00;;;;;;;23.31;64.84;100606.95;1712091;83;21546;-61
2021/08/27 10:41:29;;;;;;;26.37;15.68;;;;;;;23.40;64.67;100603.39;1740681;80;21068;-62
2021/08/27 10:44:01;;;;;;;24.52;14.95;;;;;;;23.48;63.78;100611.38;1742584;81;21398;-61
2021/08/27 10:46:52;;;;;;;21.95;13.28;;;;;;;23.48;63.61;100614.11;1736834;80;21512;-62
2021/08/27 10:49:22;;;;;;;21.15;13.08;;;;;;;23.46;63.19;100619.22;1766228;80;21605;-61
2021/08/27 10:51:53;;;;;;;18.98;12.68;;;;;;;23.49;62.62;100614.47;1752875;80;21092;-61
2021/08/27 10:54:22;;;;;;;20.20;12.23;;;;;;;23.48;63.16;100611.38;1768780;79;21067;-60
2021/08/27 10:56:54;;;;;;;16.30;10.80;;;;;;;23.41;62.72;100616.05;1772374;80;21019;-62
2021/08/27 10:59:35;;;;;;;18.57;11.05;;;;;;;23.34;62.66;100612.66;1767914;79;21049;-62
2021/08/27 11:02:04;;;;;;;14.90;10.80;;;;;;;23.28;63.79;100608.11;1767811;80;21065;-62
2021/08/27 11:04:42;;;;;;;17.32;11.68;;;;;;;23.29;64.83;100612.58;1766563;79;21806;-61
2021/08/27 11:07:20;;;;;;;14.70;10.68;;;;;;;23.29;64.41;100617.17;1767227;79;21612;-60
2021/08/27 11:10:09;;;;;;;14.63;9.93;;;;;;;23.26;64.79;100628.39;1768416;79;20961;-60
2021/08/27 11:12:34;;;;;;;13.62;10.13;;;;;;;23.24;65.38;100619.44;1760000;79;21108;-61
2021/08/27 11:15:28;;;;;;;15.20;10.20;;;;;;;23.20;64.84;100615.25;1761458;79;21115;-60
2021/08/27 11:18:24;;;;;;;12.98;9.48;;;;;;;23.21;63.28;100623.82;1765283;79;21179;-60
2021/08/27 11:23:21;;;;;;;13.95;10.03;;;;;;;23.18;63.84;100613.52;1774703;79;21063;-61
2021/08/27 11:26:03;;;;;;;13.80;10.23;;;;;;;23.23;64.39;100617.70;1769201;79;21096;-61
2021/08/27 11:28:36;;;;;;;15.10;10.30;;;;;;;23.25;64.01;100611.59;1770334;79;21691;-60
2021/08/27 11:31:04;;;;;;;16.20;9.98;;;;;;;23.25;64.42;100607.48;1768261;79;21102;-60
2021/08/27 11:33:47;;;;;;;11.88;9.48;;;;;;;23.30;64.13;100602.48;1767789;79;21033;-60